createdAt,value
2019-05-07T00:01:20.384Z,1.40
2019-05-07T00:03:53.876Z,1.15
2019-05-07T00:06:27.210Z,0.93
2019-05-07T00:09:03.071Z,0.90
2019-05-07T00:11:37.271Z,2.45
2019-05-07T00:14:12.607Z,1.80
2019-05-07T00:16:45.652Z,1.57
2019-05-07T00:19:18.972Z,1.30
2019-05-07T00:21:52.930Z,1.35
2019-05-07T00:24:26.611Z,0.70
2019-05-07T00:27:02.602Z,1.17
2019-05-07T00:29:35.093Z,1.32
2019-05-07T00:32:11.973Z,1.52
2019-05-07T00:34:45.891Z,0.98
2019-05-07T00:37:19.314Z,1.67
2019-05-07T00:39:52.925Z,2.87
2019-05-07T00:42:26.365Z,1.80
2019-05-07T00:45:14.064Z,1.45
2019-05-07T00:47:37.010Z,1.05
2019-05-07T00:50:12.950Z,1.15
2019-05-07T00:52:46.542Z,1.25
2019-05-07T00:55:19.847Z,0.82
2019-05-07T00:57:53.188Z,1.07
2019-05-07T01:00:26.567Z,1.10
2019-05-07T01:02:59.921Z,1.10
2019-05-07T01:05:33.418Z,1.98
2019-05-07T01:08:06.869Z,1.02
2019-05-07T01:10:41.952Z,1.10
2019-05-07T01:13:15.554Z,1.00
2019-05-07T01:15:48.994Z,1.32
2019-05-07T01:18:23.445Z,0.98
2019-05-07T01:20:57.021Z,1.02
2019-05-07T01:23:32.260Z,1.00
2019-05-07T01:26:06.048Z,2.55
2019-05-07T01:28:39.400Z,1.30
2019-05-07T01:31:12.834Z,1.20
2019-05-07T01:33:47.766Z,1.45
2019-05-07T01:36:22.743Z,1.57
2019-05-07T01:38:56.518Z,1.30
2019-05-07T01:41:29.822Z,0.95
2019-05-07T01:44:03.279Z,1.52
2019-05-07T01:46:36.748Z,1.35
2019-05-07T01:49:12.037Z,0.98
2019-05-07T01:51:45.127Z,1.52
2019-05-07T01:54:18.491Z,1.35
2019-05-07T01:56:52.259Z,1.40
2019-05-07T01:59:25.782Z,1.02
2019-05-07T02:01:59.152Z,1.10
2019-05-07T02:04:32.785Z,1.22
2019-05-07T02:07:06.228Z,1.02
2019-05-07T02:09:39.576Z,0.95
2019-05-07T02:12:13.254Z,1.27
2019-05-07T02:14:46.833Z,1.67
2019-05-07T02:17:20.156Z,1.65
2019-05-07T02:19:53.491Z,1.35
2019-05-07T02:22:27.989Z,0.90
2019-05-07T02:25:03.329Z,1.90
2019-05-07T02:27:38.269Z,1.05
2019-05-07T02:30:14.812Z,2.15
2019-05-07T02:32:48.367Z,1.30
2019-05-07T02:35:23.465Z,1.77
2019-05-07T02:37:57.999Z,1.40
2019-05-07T02:40:33.921Z,1.40
2019-05-07T02:43:06.535Z,1.90
2019-05-07T02:45:40.257Z,1.32
2019-05-07T02:48:13.751Z,1.82
2019-05-07T02:50:47.103Z,1.22
2019-05-07T02:53:22.815Z,1.52
2019-05-07T02:55:55.768Z,1.47
2019-05-07T02:58:29.257Z,2.30
2019-05-07T03:01:04.725Z,2.12
2019-05-07T03:03:37.728Z,5.17
2019-05-07T03:06:13.567Z,3.15
2019-05-07T03:08:46.492Z,2.00
2019-05-07T03:11:22.779Z,2.33
2019-05-07T03:13:54.945Z,2.08
2019-05-07T03:16:39.610Z,2.10
2019-05-07T03:19:04.549Z,1.82
2019-05-07T03:21:37.909Z,1.77
2019-05-07T03:24:13.857Z,2.15
2019-05-07T03:26:46.313Z,1.50
2019-05-07T03:29:19.685Z,1.85
2019-05-07T03:31:56.165Z,1.52
2019-05-07T03:34:28.271Z,1.75
2019-05-07T03:37:06.215Z,2.02
2019-05-07T03:39:36.855Z,2.35
2019-05-07T03:42:13.036Z,1.90
2019-05-07T03:44:45.584Z,3.02
2019-05-07T03:47:19.190Z,1.90
2019-05-07T03:49:53.507Z,1.87
2019-05-07T03:52:27.334Z,1.67
2019-05-07T03:55:03.676Z,1.57
2019-05-07T03:57:37.740Z,2.12
2019-05-07T04:00:12.909Z,3.50
2019-05-07T04:02:46.736Z,1.90
2019-05-07T04:05:22.946Z,1.45
2019-05-07T04:07:55.271Z,2.37
2019-05-07T04:10:28.656Z,2.67
2019-05-07T04:13:04.465Z,1.62
2019-05-07T04:15:37.027Z,2.40
2019-05-07T04:18:13.047Z,1.98
2019-05-07T04:20:45.544Z,2.10
2019-05-07T04:23:19.153Z,2.17
2019-05-07T04:25:53.455Z,1.75
2019-05-07T04:28:28.064Z,2.10
2019-05-07T04:31:02.914Z,2.05
2019-05-07T04:33:37.575Z,1.87
2019-05-07T04:36:14.211Z,1.62
2019-05-07T04:38:47.011Z,1.47
2019-05-07T04:41:23.024Z,2.02
2019-05-07T04:43:55.606Z,1.85
2019-05-07T04:46:33.242Z,3.42
2019-05-07T04:49:05.642Z,1.32
2019-05-07T04:51:39.097Z,1.52
2019-05-07T04:54:14.263Z,3.70
2019-05-07T04:56:47.675Z,2.85
2019-05-07T04:59:23.791Z,2.25
2019-05-07T05:01:56.883Z,5.12
2019-05-07T05:04:34.674Z,2.77
2019-05-07T05:07:06.373Z,4.05
2019-05-07T05:09:42.484Z,5.17
2019-05-07T05:12:14.822Z,6.90
2019-05-07T05:14:48.178Z,6.67
2019-05-07T05:17:22.453Z,5.15
2019-05-07T05:19:55.868Z,7.03
2019-05-07T05:22:31.740Z,5.42
2019-05-07T05:25:05.441Z,5.58
2019-05-07T05:27:38.819Z,4.47
2019-05-07T05:30:12.533Z,3.40
2019-05-07T05:32:45.847Z,4.10
2019-05-07T05:35:22.059Z,7.87
2019-05-07T05:37:55.074Z,4.05
2019-05-07T05:40:28.408Z,5.72
2019-05-07T05:43:01.989Z,7.90
2019-05-07T05:45:36.907Z,5.35
2019-05-07T05:48:13.340Z,4.35
2019-05-07T05:50:45.579Z,4.30
2019-05-07T05:53:19.141Z,6.15
2019-05-07T05:55:52.888Z,3.42
2019-05-07T05:58:27.357Z,6.00
2019-05-07T06:01:02.548Z,7.85
2019-05-07T06:03:36.818Z,2.70
2019-05-07T06:06:12.667Z,2.92
2019-05-07T06:08:45.357Z,5.35
2019-05-07T06:11:18.680Z,4.58
2019-05-07T06:13:52.701Z,2.20
2019-05-07T06:16:26.184Z,5.28
2019-05-07T06:19:01.936Z,5.17
2019-05-07T06:21:34.970Z,3.47
2019-05-07T06:24:08.361Z,5.42
2019-05-07T06:26:42.583Z,3.58
2019-05-07T06:29:16.112Z,4.55
2019-05-07T06:31:49.789Z,5.17
2019-05-07T06:34:23.315Z,4.80
2019-05-07T06:36:56.703Z,4.42
2019-05-07T06:39:30.126Z,4.10
2019-05-07T06:42:03.764Z,4.30
2019-05-07T06:44:37.249Z,3.58
2019-05-07T06:47:12.966Z,4.17
2019-05-07T06:49:45.974Z,3.17
2019-05-07T06:52:19.308Z,2.55
2019-05-07T06:54:52.737Z,2.62
2019-05-07T06:57:26.172Z,3.92
2019-05-07T06:59:59.533Z,3.12
2019-05-07T07:02:32.926Z,4.10
2019-05-07T07:05:06.322Z,3.20
2019-05-07T07:07:41.964Z,2.22
2019-05-07T07:10:14.780Z,2.27
2019-05-07T07:12:48.150Z,2.70
2019-05-07T07:15:23.211Z,2.40
2019-05-07T07:17:56.833Z,4.40
2019-05-07T07:20:32.453Z,2.60
2019-05-07T07:23:05.546Z,2.12
2019-05-07T07:25:39.219Z,2.22
2019-05-07T07:28:12.643Z,2.27
2019-05-07T07:30:45.991Z,4.97
2019-05-07T07:33:19.368Z,2.90
2019-05-07T07:35:53.012Z,2.65
2019-05-07T07:38:26.376Z,2.80
2019-05-07T07:41:02.319Z,2.25
2019-05-07T07:43:35.525Z,3.35
2019-05-07T07:46:08.910Z,4.85
2019-05-07T07:48:43.506Z,3.42
2019-05-07T07:51:17.175Z,3.80
2019-05-07T07:53:52.049Z,4.87
2019-05-07T07:56:25.483Z,4.97
2019-05-07T07:58:58.918Z,5.08
2019-05-07T08:01:33.025Z,5.92
2019-05-07T08:04:06.521Z,4.05
2019-05-07T08:06:42.011Z,5.50
2019-05-07T08:09:15.063Z,6.50
2019-05-07T08:11:48.367Z,7.30
2019-05-07T08:14:22.005Z,7.97
2019-05-07T08:16:55.625Z,6.92
2019-05-07T08:19:29.027Z,7.80
2019-05-07T08:22:02.986Z,6.17
2019-05-07T08:24:36.852Z,5.80
2019-05-07T08:27:14.679Z,5.78
2019-05-07T08:29:45.616Z,3.95
2019-05-07T08:32:19.141Z,7.72
2019-05-07T08:34:52.474Z,4.22
2019-05-07T08:37:25.827Z,5.47
2019-05-07T08:39:59.377Z,4.75
2019-05-07T08:42:33.118Z,5.28
2019-05-07T08:45:06.653Z,6.78
2019-05-07T08:47:40.101Z,7.50
2019-05-07T08:50:15.983Z,6.15
2019-05-07T08:52:52.199Z,7.92
2019-05-07T08:55:25.716Z,6.30
2019-05-07T08:57:59.079Z,6.47
2019-05-07T09:00:33.754Z,5.95
2019-05-07T09:03:19.278Z,9.13
2019-05-07T09:05:42.643Z,7.83
2019-05-07T09:08:15.999Z,9.60
2019-05-07T09:10:50.011Z,7.22
2019-05-07T09:13:23.337Z,8.75
2019-05-07T09:15:58.160Z,4.22
2019-05-07T09:18:32.213Z,9.25
2019-05-07T09:21:05.857Z,10.80
2019-05-07T09:23:39.173Z,7.03
2019-05-07T09:26:13.073Z,5.95
2019-05-07T09:28:46.627Z,4.67
2019-05-07T09:31:20.240Z,4.75
2019-05-07T09:33:53.638Z,4.95
2019-05-07T09:36:27.021Z,6.10
2019-05-07T09:39:02.678Z,5.10
2019-05-07T09:41:37.281Z,4.73
2019-05-07T09:44:11.921Z,5.37
2019-05-07T09:46:46.743Z,7.25
2019-05-07T09:49:22.136Z,4.03
2019-05-07T09:51:55.167Z,6.65
2019-05-07T09:54:29.374Z,7.28
2019-05-07T09:57:02.721Z,5.62
2019-05-07T09:59:36.074Z,6.10
2019-05-07T10:02:09.392Z,4.58
2019-05-07T10:04:42.878Z,9.40
2019-05-07T10:07:16.181Z,10.85
2019-05-07T10:09:49.527Z,7.35
2019-05-07T10:12:22.946Z,6.35
2019-05-07T10:14:56.578Z,8.30
2019-05-07T10:17:29.888Z,8.10
2019-05-07T10:20:18.236Z,11.28
2019-05-07T10:22:42.711Z,7.53
2019-05-07T10:25:15.973Z,10.55
2019-05-07T10:27:50.298Z,9.13
2019-05-07T10:30:23.633Z,8.18
2019-05-07T10:32:56.943Z,8.23
2019-05-07T10:35:33.157Z,8.73
2019-05-07T10:38:05.319Z,6.25
2019-05-07T10:40:40.350Z,8.53
2019-05-07T10:43:13.894Z,8.08
2019-05-07T10:45:47.235Z,6.53
2019-05-07T10:48:22.059Z,6.33
2019-05-07T10:50:55.642Z,5.92
2019-05-07T10:53:29.002Z,4.70
2019-05-07T10:56:03.894Z,7.17
2019-05-07T10:58:37.247Z,7.70
2019-05-07T11:01:12.081Z,4.87
2019-05-07T11:03:47.017Z,7.12
2019-05-07T11:06:22.158Z,6.20
2019-05-07T11:08:55.531Z,6.67
2019-05-07T11:11:28.876Z,4.35
2019-05-07T11:14:02.198Z,4.85
2019-05-07T11:16:35.514Z,5.45
2019-05-07T11:19:08.835Z,4.53
2019-05-07T11:21:42.180Z,5.53
2019-05-07T11:24:15.495Z,4.67
2019-05-07T11:26:48.922Z,4.03
2019-05-07T11:29:22.271Z,5.62
2019-05-07T11:31:55.920Z,5.67
2019-05-07T11:34:29.238Z,5.42
2019-05-07T11:37:02.680Z,5.50
2019-05-07T11:39:36.062Z,6.65
2019-05-07T11:42:09.607Z,5.70
2019-05-07T11:44:42.921Z,6.47
2019-05-07T11:47:16.396Z,3.83
2019-05-07T11:49:49.715Z,4.10
2019-05-07T11:52:24.622Z,4.85
2019-05-07T11:54:57.958Z,7.28
2019-05-07T11:57:31.469Z,5.50
2019-05-07T12:00:07.581Z,3.25
2019-05-07T12:02:47.294Z,4.53
2019-05-07T12:05:17.558Z,6.22
2019-05-07T12:07:51.052Z,3.62
2019-05-07T12:10:24.532Z,3.60
2019-05-07T12:12:57.887Z,4.72
2019-05-07T12:15:32.508Z,3.47
2019-05-07T12:18:06.279Z,3.58
2019-05-07T12:20:41.215Z,5.30
2019-05-07T12:23:14.606Z,4.67
2019-05-07T12:25:47.947Z,5.08
2019-05-07T12:28:22.572Z,4.00
2019-05-07T12:30:56.710Z,4.67
2019-05-07T12:33:32.520Z,3.85
2019-05-07T12:36:05.967Z,3.72
2019-05-07T12:38:41.660Z,3.33
2019-05-07T12:41:14.720Z,4.55
2019-05-07T12:43:48.142Z,3.20
2019-05-07T12:46:22.352Z,3.20
2019-05-07T12:48:56.126Z,5.70
2019-05-07T12:51:34.593Z,4.67
2019-05-07T12:54:04.622Z,4.50
2019-05-07T12:56:37.964Z,4.33
2019-05-07T12:59:12.879Z,3.77
2019-05-07T13:01:46.681Z,4.70
2019-05-07T13:04:21.997Z,3.55
2019-05-07T13:06:55.106Z,6.22
2019-05-07T13:09:28.539Z,3.70
2019-05-07T13:12:03.019Z,4.75
2019-05-07T13:14:36.481Z,3.85
2019-05-07T13:17:11.963Z,4.62
2019-05-07T13:19:44.821Z,4.12
2019-05-07T13:22:18.155Z,3.37
2019-05-07T13:24:52.924Z,4.30
2019-05-07T13:27:27.364Z,4.85
2019-05-07T13:30:02.605Z,3.83
2019-05-07T13:32:36.360Z,5.25
2019-05-07T13:35:11.778Z,3.55
2019-05-07T13:37:45.110Z,4.42
2019-05-07T13:40:18.487Z,4.80
2019-05-07T13:42:52.267Z,3.70
2019-05-07T13:45:25.932Z,5.33
2019-05-07T13:47:59.338Z,3.67
2019-05-07T13:50:32.701Z,4.10
2019-05-07T13:53:05.988Z,5.17
2019-05-07T13:55:39.514Z,3.65
2019-05-07T13:58:14.345Z,3.62
2019-05-07T14:00:48.918Z,5.55
2019-05-07T14:03:22.737Z,4.42
2019-05-07T14:05:57.220Z,4.62
2019-05-07T14:08:32.158Z,3.83
2019-05-07T14:11:05.537Z,3.65
2019-05-07T14:13:38.856Z,4.90
2019-05-07T14:16:12.231Z,4.12
2019-05-07T14:18:45.607Z,4.37
2019-05-07T14:21:18.950Z,4.95
2019-05-07T14:23:52.303Z,3.85
2019-05-07T14:26:25.670Z,4.03
2019-05-07T14:29:01.925Z,9.10
2019-05-07T14:31:35.370Z,3.77
2019-05-07T14:34:08.701Z,4.65
2019-05-07T14:36:42.695Z,3.70
2019-05-07T14:39:16.184Z,4.28
2019-05-07T14:41:49.490Z,4.90
2019-05-07T14:44:25.270Z,5.33
2019-05-07T14:47:02.312Z,4.72
2019-05-07T14:49:35.545Z,3.80
2019-05-07T14:52:12.501Z,5.12
2019-05-07T14:54:46.100Z,9.33
2019-05-07T14:57:21.719Z,9.03
2019-05-07T14:59:56.525Z,4.42
2019-05-07T15:02:29.899Z,6.90
2019-05-07T15:05:05.798Z,4.80
2019-05-07T15:07:39.786Z,7.83
2019-05-07T15:10:13.332Z,10.63
2019-05-07T15:12:46.734Z,10.28
2019-05-07T15:15:22.001Z,9.90
2019-05-07T15:17:55.255Z,13.98
2019-05-07T15:20:29.437Z,6.60
2019-05-07T15:23:02.869Z,6.70
2019-05-07T15:25:36.464Z,5.50
2019-05-07T15:28:09.654Z,4.60
2019-05-07T15:30:43.469Z,7.42
2019-05-07T15:33:16.899Z,10.20
2019-05-07T15:35:52.072Z,4.87
2019-05-07T15:38:25.389Z,8.85
2019-05-07T15:40:58.814Z,4.62
2019-05-07T15:43:32.511Z,6.33
2019-05-07T15:46:06.111Z,8.80
2019-05-07T15:48:39.451Z,7.05
2019-05-07T15:51:12.855Z,4.83
2019-05-07T15:53:47.810Z,6.10
2019-05-07T15:56:21.913Z,4.50
2019-05-07T15:58:55.344Z,5.15
2019-05-07T16:01:28.827Z,7.45
2019-05-07T16:04:02.781Z,5.22
2019-05-07T16:06:36.459Z,10.78
2019-05-07T16:09:09.974Z,4.70
2019-05-07T16:11:43.491Z,4.17
2019-05-07T16:14:16.967Z,8.80
2019-05-07T16:16:51.993Z,3.67
2019-05-07T16:19:25.355Z,5.55
2019-05-07T16:22:03.615Z,7.70
2019-05-07T16:24:34.953Z,4.10
2019-05-07T16:27:08.269Z,5.75
2019-05-07T16:29:42.166Z,3.60
2019-05-07T16:32:15.975Z,3.70
2019-05-07T16:34:50.188Z,7.20
2019-05-07T16:37:23.578Z,3.72
2019-05-07T16:39:58.641Z,8.00
2019-05-07T16:42:33.633Z,15.63
2019-05-07T16:45:07.086Z,23.00
2019-05-07T16:47:40.442Z,25.40
2019-05-07T16:50:14.752Z,24.80
2019-05-07T16:52:48.122Z,24.60
2019-05-07T16:55:22.405Z,27.50
2019-05-07T16:57:56.018Z,29.15
2019-05-07T17:00:31.736Z,27.62
2019-05-07T17:03:04.733Z,30.55
2019-05-07T17:05:39.023Z,24.10
2019-05-07T17:08:12.506Z,27.15
2019-05-07T17:10:46.506Z,22.22
2019-05-07T17:13:19.874Z,21.93
2019-05-07T17:15:53.207Z,25.57
2019-05-07T17:18:28.442Z,22.50
2019-05-07T17:21:02.214Z,18.73
2019-05-07T17:23:44.126Z,20.45
2019-05-07T17:26:11.732Z,21.93
2019-05-07T17:28:45.166Z,19.17
2019-05-07T17:31:18.578Z,18.37
2019-05-07T17:33:51.923Z,16.02
2019-05-07T17:36:25.306Z,18.85
2019-05-07T17:38:58.733Z,15.88
2019-05-07T17:41:32.406Z,13.20
2019-05-07T17:44:06.502Z,18.00
2019-05-07T17:46:42.686Z,11.70
2019-05-07T17:49:15.875Z,18.75
2019-05-07T17:51:49.267Z,10.45
2019-05-07T17:54:22.730Z,13.53
2019-05-07T17:56:56.067Z,10.03
2019-05-07T17:59:29.492Z,13.98
2019-05-07T18:02:03.605Z,13.15
2019-05-07T18:04:48.466Z,10.60
2019-05-07T18:07:12.374Z,11.38
2019-05-07T18:09:46.789Z,10.40
2019-05-07T18:12:22.464Z,11.80
2019-05-07T18:14:55.741Z,17.73
2019-05-07T18:17:30.265Z,6.53
2019-05-07T18:20:04.316Z,12.82
2019-05-07T18:22:37.926Z,5.33
2019-05-07T18:25:12.451Z,9.30
2019-05-07T18:27:46.537Z,10.18
2019-05-07T18:30:22.063Z,9.40
2019-05-07T18:32:55.377Z,8.03
2019-05-07T18:35:32.150Z,8.33
2019-05-07T18:38:06.934Z,6.62
2019-05-07T18:40:42.131Z,7.75
2019-05-07T18:43:17.380Z,6.30
2019-05-07T18:45:51.755Z,4.75
2019-05-07T18:48:26.763Z,5.53
2019-05-07T18:51:02.746Z,6.95
2019-05-07T18:53:36.356Z,5.22
2019-05-07T18:56:10.049Z,5.03
2019-05-07T18:58:44.377Z,5.60
2019-05-07T19:01:17.912Z,3.98
2019-05-07T19:03:52.566Z,4.67
2019-05-07T19:06:26.507Z,5.47
2019-05-07T19:09:00.152Z,4.28
2019-05-07T19:11:35.340Z,4.30
2019-05-07T19:14:10.600Z,5.22
2019-05-07T19:16:44.317Z,5.37
2019-05-07T19:19:17.506Z,6.33
2019-05-07T19:21:52.790Z,5.95
2019-05-07T19:24:26.597Z,6.25
2019-05-07T19:27:02.038Z,4.92
2019-05-07T19:29:35.127Z,3.52
2019-05-07T19:32:08.681Z,6.37
2019-05-07T19:34:43.860Z,4.40
2019-05-07T19:37:17.465Z,3.33
2019-05-07T19:39:52.369Z,3.80
2019-05-07T19:42:26.409Z,5.22
2019-05-07T19:45:02.643Z,2.90
2019-05-07T19:47:36.942Z,3.98
2019-05-07T19:50:12.401Z,9.18
2019-05-07T19:52:45.477Z,7.15
2019-05-07T19:55:18.927Z,5.40
2019-05-07T19:57:52.343Z,14.93
2019-05-07T20:00:27.439Z,6.30
2019-05-07T20:03:00.876Z,23.47
2019-05-07T20:05:37.198Z,29.90
2019-05-07T20:08:11.882Z,21.75
2019-05-07T20:10:44.815Z,22.58
2019-05-07T20:13:18.141Z,23.05
2019-05-07T20:15:52.851Z,13.00
2019-05-07T20:18:26.242Z,12.05
2019-05-07T20:21:02.553Z,10.53
2019-05-07T20:23:36.632Z,13.13
2019-05-07T20:26:12.644Z,9.00
2019-05-07T20:28:46.199Z,9.68
2019-05-07T20:31:19.658Z,10.58
2019-05-07T20:33:53.299Z,14.65
2019-05-07T20:36:26.986Z,11.33
2019-05-07T20:39:02.227Z,12.05
2019-05-07T20:41:37.074Z,11.40
2019-05-07T20:44:11.942Z,9.00
2019-05-07T20:46:45.664Z,10.35
2019-05-07T20:49:19.009Z,9.15
2019-05-07T20:51:52.797Z,9.63
2019-05-07T20:54:26.311Z,11.10
2019-05-07T20:57:02.108Z,7.03
2019-05-07T20:59:34.974Z,8.60
2019-05-07T21:02:08.372Z,7.15
2019-05-07T21:04:42.495Z,8.20
2019-05-07T21:07:16.293Z,8.53
2019-05-07T21:09:49.719Z,11.68
2019-05-07T21:12:23.082Z,5.47
2019-05-07T21:14:56.565Z,8.58
2019-05-07T21:17:32.074Z,6.05
2019-05-07T21:20:06.728Z,5.62
2019-05-07T21:22:40.086Z,5.37
2019-05-07T21:25:13.429Z,4.70
2019-05-07T21:27:46.753Z,4.50
2019-05-07T21:30:22.194Z,5.53
2019-05-07T21:32:55.127Z,7.62
2019-05-07T21:35:28.474Z,5.37
2019-05-07T21:38:01.928Z,5.20
2019-05-07T21:40:35.315Z,3.95
2019-05-07T21:43:08.668Z,4.72
2019-05-07T21:45:42.394Z,5.40
2019-05-07T21:48:15.761Z,5.67
2019-05-07T21:50:49.158Z,4.05
2019-05-07T21:53:22.978Z,4.65
2019-05-07T21:56:01.888Z,5.42
2019-05-07T21:58:32.873Z,6.58
2019-05-07T22:01:06.224Z,4.65
2019-05-07T22:03:39.858Z,5.15
2019-05-07T22:06:13.221Z,4.35
2019-05-07T22:08:47.996Z,3.98
2019-05-07T22:11:22.957Z,4.15
2019-05-07T22:13:56.610Z,5.87
2019-05-07T22:16:30.120Z,3.90
2019-05-07T22:19:03.822Z,5.72
2019-05-07T22:21:37.127Z,4.83
2019-05-07T22:24:13.107Z,3.83
2019-05-07T22:26:46.194Z,4.85
2019-05-07T22:29:19.500Z,5.08
2019-05-07T22:31:53.082Z,5.08
2019-05-07T22:34:28.188Z,6.37
2019-05-07T22:37:03.335Z,5.42
2019-05-07T22:39:47.527Z,4.97
2019-05-07T22:42:28.582Z,5.95
2019-05-07T22:45:02.804Z,5.17
2019-05-07T22:47:36.523Z,7.05
2019-05-07T22:50:12.022Z,4.90
2019-05-07T22:52:45.104Z,5.65
2019-05-07T22:55:18.440Z,6.42
2019-05-07T22:57:52.530Z,5.30
2019-05-07T23:00:26.134Z,5.83
2019-05-07T23:02:59.512Z,4.78
2019-05-07T23:05:32.858Z,5.10
2019-05-07T23:08:06.166Z,5.58
2019-05-07T23:10:39.524Z,5.33
2019-05-07T23:13:13.097Z,4.87
2019-05-07T23:15:46.654Z,4.92
2019-05-07T23:18:22.592Z,4.85
2019-05-07T23:20:56.757Z,5.97
2019-05-07T23:23:32.053Z,5.97
2019-05-07T23:26:05.201Z,4.70
2019-05-07T23:28:39.207Z,4.55
2019-05-07T23:31:12.796Z,5.78
2019-05-07T23:33:46.256Z,4.50
2019-05-07T23:36:22.162Z,5.30
2019-05-07T23:38:56.432Z,4.87
2019-05-07T23:41:32.427Z,4.53
2019-05-07T23:44:05.761Z,5.50
2019-05-07T23:46:39.144Z,6.25
2019-05-07T23:49:12.713Z,4.58
2019-05-07T23:51:46.042Z,6.17
2019-05-07T23:54:19.385Z,5.37
2019-05-07T23:57:05.943Z,5.70
2019-05-07T23:59:29.198Z,5.10
